Forest Glade, Texas
Current Conditions -  °F | °C
As of 7:15 PM on Saturday 25 Oct 2014 (Local Time) from KLXY Reporting Station
Clear Clear  
Wind Chill: 76°   Ceiling: Unl
Heat Index: 76°   Visibility: 10mi
Dew Point: 63°   Wind: 3mph
Humidity: 63%   Direction: 150°SSE
Pressure: 30.07"   Gusts: NA
Location:  31.6887°N, 96.511°W
Report Text: KLXY 260015Z AUTO 15003KT 10SM CLR 24/17 A3007 RMK AO2 T02440170
Loading
Personal Weather Stations






























Interactive Weather Map
Tropical Storm Tracking
New forecast layout! Learn more

10-Day Weather Forecast

Advertisements
Track Severe Weather on mobile